createdAt,value
2019-03-23T00:05:26.193Z,23.6
2019-03-23T00:15:25.401Z,23.6
2019-03-23T00:25:24.617Z,23.6
2019-03-23T00:35:23.830Z,23.6
2019-03-23T00:45:23.043Z,23.6
2019-03-23T00:55:22.321Z,23.6
2019-03-23T01:05:21.634Z,23.6
2019-03-23T01:15:20.953Z,23.6
2019-03-23T01:25:20.920Z,23.5
2019-03-23T01:35:19.584Z,23.5
2019-03-23T01:45:18.900Z,23.5
2019-03-23T01:55:18.117Z,23.5
2019-03-23T02:05:17.329Z,23.4
2019-03-23T02:15:16.541Z,23.4
2019-03-23T02:25:15.755Z,23.4
2019-03-23T02:35:14.970Z,23.4
2019-03-23T02:45:14.182Z,23.4
2019-03-23T02:55:13.411Z,23.4
2019-03-23T03:05:12.608Z,23.4
2019-03-23T03:18:54.450Z,23.4
2019-03-23T03:30:49.501Z,23.4
2019-03-23T03:40:48.716Z,23.4
2019-03-23T03:50:47.926Z,23.4
2019-03-23T04:15:39.587Z,23.3
2019-03-23T04:25:38.800Z,23.3
2019-03-23T04:35:38.013Z,23.3
2019-03-23T04:45:37.225Z,23.3
2019-03-23T04:55:36.436Z,23.3
2019-03-23T05:05:35.649Z,23.4
2019-03-23T05:15:34.931Z,23.4
2019-03-23T05:25:34.245Z,23.4
2019-03-23T05:35:33.589Z,23.4
2019-03-23T05:45:32.874Z,23.4
2019-03-23T05:55:32.190Z,23.4
2019-03-23T06:05:31.507Z,23.5
2019-03-23T06:15:30.720Z,23.6
2019-03-23T06:25:29.938Z,23.7
2019-03-23T06:35:29.151Z,23.8
2019-03-23T06:45:28.362Z,23.8
2019-03-23T06:55:27.576Z,23.8
2019-03-23T07:05:26.794Z,23.8
2019-03-23T07:15:26.006Z,23.9
2019-03-23T07:25:25.223Z,23.9
2019-03-23T07:35:24.437Z,24
2019-03-23T07:45:23.654Z,24.1
2019-03-23T07:55:22.869Z,24.1
2019-03-23T08:05:22.084Z,24.2
2019-03-23T08:15:21.300Z,24.2
2019-03-23T08:25:20.521Z,24
2019-03-23T08:35:19.730Z,24.2
2019-03-23T08:45:18.944Z,24.1
2019-03-23T08:55:18.160Z,24.3
2019-03-23T09:05:17.378Z,24.3
2019-03-23T09:15:16.596Z,24.3
2019-03-23T09:25:16.551Z,24.4
2019-03-23T09:35:15.769Z,24.3
2019-03-23T09:45:14.987Z,24.2
2019-03-23T09:55:14.210Z,24.1
2019-03-23T10:05:13.419Z,24.1
2019-03-23T10:15:12.634Z,24.2
2019-03-23T10:25:11.851Z,24
2019-03-23T10:35:11.066Z,23.9
2019-03-23T10:45:10.281Z,24
2019-03-23T10:55:09.496Z,24
2019-03-23T11:05:08.713Z,23.9
2019-03-23T11:15:07.956Z,23.9
2019-03-23T11:25:07.157Z,23.9
2019-03-23T11:35:08.071Z,23.9
2019-03-23T11:45:05.612Z,23.9
2019-03-23T11:55:04.819Z,23.9
2019-03-23T12:05:04.042Z,23.9
2019-03-23T12:15:03.262Z,23.9
2019-03-23T12:25:02.479Z,23.9
2019-03-23T12:35:01.697Z,23.9
2019-03-23T12:45:00.925Z,23.9
2019-03-23T12:55:00.142Z,23.9
2019-03-23T13:04:59.349Z,23.9
2019-03-23T13:14:58.565Z,23.9
2019-03-23T13:24:57.781Z,23.9
2019-03-23T13:34:56.997Z,23.9
2019-03-23T13:44:56.224Z,23.9
2019-03-23T13:54:55.431Z,24
2019-03-23T14:04:54.648Z,24
2019-03-23T14:14:53.872Z,24
2019-03-23T14:24:53.083Z,24
2019-03-23T14:34:52.302Z,23.9
2019-03-23T14:44:51.698Z,24
2019-03-23T14:51:05.533Z,24
2019-03-23T15:01:04.751Z,24.1
2019-03-23T15:11:03.966Z,24.1
2019-03-23T15:21:03.201Z,24.1
2019-03-23T15:30:44.424Z,23.9
2019-03-23T15:40:43.642Z,23.9
2019-03-23T15:50:42.858Z,23.9
2019-03-23T16:00:42.086Z,24.1
2019-03-23T16:10:41.301Z,24.1
2019-03-23T16:20:40.524Z,24.1
2019-03-23T16:30:39.806Z,24.1
2019-03-23T16:40:39.188Z,24.1
2019-03-23T16:50:38.457Z,24.1
2019-03-23T17:00:37.782Z,24.1
2019-03-23T17:10:37.108Z,24.1
2019-03-23T17:20:36.430Z,24.1
2019-03-23T17:30:35.657Z,24
2019-03-23T17:40:34.868Z,24.1
2019-03-23T17:50:34.086Z,24.1
2019-03-23T18:00:33.305Z,24
2019-03-23T18:10:33.803Z,24.1
2019-03-23T18:20:33.049Z,24.1
2019-03-23T18:30:32.239Z,24.1
2019-03-23T18:40:31.456Z,24
2019-03-23T18:50:30.675Z,24.1
2019-03-23T19:04:36.403Z,23.9
2019-03-23T19:14:35.624Z,24.1
2019-03-23T19:24:34.837Z,24.2
2019-03-23T19:38:14.501Z,24
2019-03-23T19:48:13.723Z,24
2019-03-23T19:58:12.942Z,24
2019-03-23T20:08:12.155Z,24
2019-03-23T20:18:11.374Z,24
2019-03-23T20:33:54.405Z,24
2019-03-23T20:43:53.627Z,24.1
2019-03-23T20:53:52.848Z,23.9
2019-03-23T21:03:52.067Z,23.9
2019-03-23T21:15:00.307Z,23.9
2019-03-23T21:24:59.477Z,24
2019-03-23T21:34:58.695Z,24.1
2019-03-23T21:44:57.913Z,24.1
2019-03-23T21:54:57.131Z,24.1
2019-03-23T22:04:56.349Z,24
2019-03-23T22:14:55.626Z,23.9
2019-03-23T22:24:54.945Z,23.9
2019-03-23T22:34:54.273Z,24.1
2019-03-23T22:44:53.592Z,23.9
2019-03-23T22:54:52.914Z,23.9
2019-03-23T23:04:52.231Z,23.9
2019-03-23T23:14:52.555Z,23.8
2019-03-23T23:24:50.666Z,23.9
2019-03-23T23:34:49.880Z,23.9
2019-03-23T23:44:49.099Z,23.9
2019-03-23T23:54:48.314Z,23.9
